Data for 09/29/2008

Time Sea-Level Adjusted Pressure Absolute Pressure Temperature Relative Humidity Dew Point   
(mb) (inHg) (mb) (inHg) (C) (F) (%) (C) (F)
00:05 1027 30.33 856 25.28 10.7 51.3 47 -0.1 31.8
00:10 1027 30.33 856 25.28 10.7 51.2 47 -0.3 31.5
00:15 1027 30.33 856 25.28 10.6 51 48 0 32
00:20 1027 30.33 856 25.28 10.2 50.3 48 -0.2 31.6
00:25 1027 30.33 856 25.28 10 49.9 49 -0.1 31.8
00:30 1027 30.33 856 25.28 9.7 49.4 49 -0.4 31.3
00:35 1027 30.33 856 25.28 9.5 49.2 50 -0.4 31.2
00:40 1027 30.33 857 25.31 9.6 49.2 49 -0.5 31.2
00:45 1027 30.33 856 25.28 9.6 49.2 50 -0.3 31.4
00:50 1027 30.33 856 25.28 9.5 49 50 -0.4 31.2
00:55 1027 30.33 857 25.31 9.4 48.9 51 -0.3 31.4
01:00 1027 30.33 857 25.31 9.2 48.6 51 -0.3 31.5
01:05 1027 30.33 857 25.31 9.2 48.5 52 -0.2 31.6
01:10 1027 30.33 857 25.31 9.1 48.4 52 -0.1 31.7
01:15 1027 30.33 857 25.31 8.9 48.1 53 -0.1 31.8
01:20 1027 30.33 857 25.31 8.7 47.7 53 -0.3 31.4
01:25 1027 30.33 857 25.31 8.7 47.7 52 -0.5 31.1
01:30 1028 30.36 857 25.31 8.7 47.7 52 -0.6 31
01:35 1028 30.36 857 25.31 8.8 47.8 51 -0.7 30.8
01:40 1028 30.36 857 25.31 8.8 47.9 51 -0.6 30.9
01:45 1028 30.36 857 25.31 8.8 47.9 51 -0.6 30.8
01:50 1028 30.36 857 25.31 8.8 47.8 51 -0.6 30.8
01:55 1028 30.36 857 25.31 8.8 47.8 52 -0.6 31
02:00 1028 30.36 857 25.31 8.8 47.9 52 -0.6 31
02:05 1028 30.36 857 25.31 9 48.2 51 -0.6 31
02:10 1028 30.36 857 25.31 9.1 48.4 51 -0.5 31.2
02:15 1028 30.36 857 25.31 9.1 48.3 52 -0.3 31.4
02:20 1028 30.36 857 25.31 8.9 48.1 52 -0.4 31.3
02:25 1028 30.36 857 25.31 9 48.2 51 -0.6 30.9
02:30 1028 30.36 857 25.31 9.1 48.4 50 -0.6 30.9
02:35 1028 30.36 857 25.31 9.2 48.6 50 -0.5 31
02:40 1028 30.36 857 25.31 9.3 48.7 50 -0.6 30.9
02:45 1028 30.36 857 25.31 9.2 48.5 50 -0.5 31
02:50 1028 30.36 857 25.31 9.1 48.3 51 -0.6 30.9
02:55 1028 30.36 857 25.31 9 48.2 51 -0.6 30.9
03:00 1028 30.36 857 25.31 8.9 47.9 52 -0.6 31
03:05 1028 30.36 857 25.31 8.6 47.5 51 -0.8 30.5
03:10 1028 30.36 857 25.31 8.7 47.6 52 -0.7 30.8
03:15 1028 30.36 857 25.31 8.5 47.2 53 -0.6 30.8
03:20 1028 30.36 857 25.31 8.5 47.2 52 -0.7 30.8
03:25 1028 30.36 857 25.31 8.5 47.2 52 -0.8 30.5
03:30 1028 30.36 857 25.31 8.7 47.6 52 -0.6 30.9
03:35 1028 30.36 857 25.31 8.6 47.5 51 -0.9 30.5
03:40 1028 30.36 857 25.31 8.7 47.6 51 -0.8 30.5
03:45 1028 30.36 857 25.31 8.5 47.3 51 -1 30.3
03:50 1027 30.33 857 25.31 8.4 47.1 52 -0.9 30.3
03:55 1027 30.33 857 25.31 8.4 47 52 -1 30.2
04:00 1027 30.33 857 25.31 8.4 47 52 -1 30.2
04:05 1027 30.33 857 25.31 8.4 47 52 -0.9 30.3
04:10 1027 30.33 857 25.31 8.2 46.8 52 -1 30.2
04:15 1027 30.33 857 25.31 8.1 46.5 53 -1 30.2
04:20 1027 30.33 857 25.31 8.1 46.5 52 -1.2 29.9
04:25 1027 30.33 857 25.31 8 46.5 53 -1 30.1
04:30 1027 30.33 857 25.31 7.8 46.1 53 -1.1 30
04:35 1027 30.33 857 25.31 7.8 46 53 -1.2 29.8
04:40 1027 30.33 857 25.31 7.6 45.8 53 -1.4 29.4
04:45 1027 30.33 857 25.31 7.7 45.8 52 -1.6 29.2
04:50 1027 30.33 857 25.31 7.7 45.9 52 -1.6 29.2
04:55 1027 30.33 856 25.28 7.7 45.9 51 -1.8 28.8
05:00 1027 30.33 856 25.28 7.7 45.9 50 -2 28.4
05:05 1027 30.33 857 25.31 7.7 45.9 49 -2.3 27.9
05:10 1027 30.33 857 25.31 7.8 46 50 -2.1 28.3
05:15 1027 30.33 857 25.31 7.9 46.3 50 -1.8 28.7
05:20 1027 30.33 857 25.31 8 46.4 50 -1.7 28.9
05:25 1027 30.33 857 25.31 8 46.3 50 -1.7 28.9
05:30 1027 30.33 857 25.31 7.9 46.1 50 -1.9 28.6
05:35 1027 30.33 857 25.31 7.6 45.7 51 -1.8 28.7
05:40 1027 30.33 857 25.31 7.4 45.3 52 -1.9 28.7
05:45 1027 30.33 857 25.31 7.4 45.3 51 -2.1 28.2
05:50 1027 30.33 857 25.31 7.2 45 49 -2.8 27
05:55 1027 30.33 857 25.31 7.2 44.9 51 -2.4 27.8
06:00 1027 30.33 857 25.31 6.8 44.2 49 -3.3 26.1
06:05 1027 30.33 857 25.31 7.3 45.1 47 -3.4 25.9
06:10 1027 30.33 857 25.31 7.7 45.8 44 -3.8 25.2
06:15 1027 30.33 857 25.31 8.1 46.6 43 -3.7 25.4
06:20 1027 30.33 857 25.31 8.2 46.8 45 -2.9 26.8
06:25 1027 30.33 857 25.31 7.9 46.2 47 -2.6 27.3
06:30 1027 30.33 857 25.31 7.6 45.7 46 -3.1 26.4
06:35 1027 30.33 857 25.31 7.6 45.7 46 -3.4 25.9
06:40 1027 30.33 857 25.31 7.6 45.7 46 -3.3 26
06:45 1027 30.33 857 25.31 7.7 45.8 46 -3.1 26.4
06:50 1027 30.33 857 25.31 7.8 46 47 -2.8 26.9
06:55 1027 30.33 857 25.31 7.5 45.4 47 -3.1 26.4
07:00 1027 30.33 857 25.31 7.3 45.1 49 -2.7 27.1
07:05 1028 30.36 857 25.31 7.1 44.7 49 -2.9 26.8
07:10 1028 30.36 857 25.31 7 44.6 49 -2.9 26.8
07:15 1028 30.36 857 25.31 6.9 44.5 50 -2.7 27.1
07:20 1028 30.36 857 25.31 6.6 43.9 50 -2.9 26.7
07:25 1028 30.36 857 25.31 6.2 43.2 50 -3.3 26.1
07:30 1028 30.36 857 25.31 6.3 43.3 50 -3.3 26.1
07:35 1028 30.36 857 25.31 6.4 43.5 50 -3.2 26.2
07:40 1028 30.36 857 25.31 6.4 43.4 51 -3.1 26.5
07:45 1028 30.36 857 25.31 6.4 43.6 49 -3.4 25.9
07:50 1028 30.36 857 25.31 6.6 43.8 48 -3.7 25.4
07:55 1028 30.36 857 25.31 6.9 44.3 48 -3.4 25.8
08:00 1028 30.36 857 25.31 7 44.7 46 -3.8 25.1
08:05 1028 30.36 857 25.31 7.3 45.1 46 -3.7 25.4
08:10 1028 30.36 857 25.31 7.6 45.6 46 -3.4 25.9
08:15 1028 30.36 857 25.31 7.7 45.9 45 -3.3 26
08:20 1028 30.36 857 25.31 8 46.5 45 -3.2 26.2
08:25 1028 30.36 857 25.31 8.2 46.8 45 -3.1 26.4
08:30 1028 30.36 857 25.31 8.2 46.7 45 -3.1 26.5
08:35 1028 30.36 857 25.31 8.4 47.2 44 -2.9 26.7
08:40 1028 30.36 857 25.31 8.9 47.9 43 -3 26.6
08:45 1028 30.36 857 25.31 9.5 49.1 41 -3.1 26.4
08:50 1028 30.36 857 25.31 9.9 49.8 39 -3.5 25.7
08:55 1028 30.36 857 25.31 10 50 40 -2.9 26.7
09:00 1028 30.36 857 25.31 10.3 50.6 40 -2.7 27.1
09:05 1028 30.36 857 25.31 10.9 51.5 39 -2.7 27.2
09:10 1028 30.36 857 25.31 11.9 53.4 37 -2.4 27.7
09:15 1028 30.36 857 25.31 12.4 54.2 36 -2.2 28
09:20 1028 30.36 857 25.31 12.3 54.1 37 -1.8 28.8
09:25 1028 30.36 857 25.31 12.2 54 38 -1.8 28.8
09:30 1028 30.36 857 25.31 12.3 54.1 37 -1.8 28.7
09:35 1028 30.36 857 25.31 12.6 54.7 36 -1.8 28.7
09:40 1028 30.36 857 25.31 13.1 55.5 35 -1.9 28.6
09:45 1028 30.36 857 25.31 13.2 55.7 36 -1.4 29.5
09:50 1028 30.36 857 25.31 13.5 56.3 34 -2.1 28.3
09:55 1028 30.36 857 25.31 14 57.1 34 -1.4 29.5
10:00 1028 30.36 857 25.31 13.3 56 37 -1 30.1
10:05 1028 30.36 857 25.31 13.4 56.2 36 -1.3 29.7
10:10 1028 30.36 857 25.31 14.1 57.4 34 -1.5 29.2
10:15 1028 30.36 857 25.31 14.3 57.7 34 -1.4 29.5
10:20 1028 30.36 857 25.31 14.2 57.6 32 -2 28.4
10:25 1028 30.36 857 25.31 14.1 57.3 34 -1.6 29
10:30 1028 30.36 857 25.31 14.5 58.1 33 -1.6 29.1
10:35 1028 30.36 857 25.31 14.8 58.6 32 -1.7 28.9
10:40 1028 30.36 857 25.31 15 59 31 -2 28.4
10:45 1028 30.36 857 25.31 15.9 60.5 30 -1.7 29
10:50 1028 30.36 857 25.31 15.6 60.1 30 -1.8 28.8
10:55 1028 30.36 857 25.31 15.2 59.4 32 -1.3 29.6
11:00 1028 30.36 857 25.31 14.6 58.3 33 -1.4 29.4
11:05 1028 30.36 857 25.31 15 59 31 -2.1 28.3
11:10 1028 30.36 857 25.31 15.4 59.7 30 -2 28.3
11:15 1028 30.36 857 25.31 16.5 61.8 28 -1.8 28.8
11:20 1028 30.36 857 25.31 16.9 62.5 29 -1 30.2
11:25 1028 30.36 857 25.31 16.6 61.8 28 -1.8 28.8
11:30 1028 30.36 857 25.31 16.7 62.1 28 -1.9 28.6
11:35 1028 30.36 857 25.31 17.4 63.4 26 -2.1 28.2
11:40 1028 30.36 857 25.31 17.9 64.2 26 -2 28.4
11:45 1028 30.36 857 25.31 18.5 65.2 25 -1.9 28.5
11:50 1028 30.36 857 25.31 18.5 65.4 25 -1.5 29.4
11:55 1028 30.36 857 25.31 18.7 65.7 25 -1.7 29
12:00 1028 30.36 857 25.31 18.7 65.7 23 -2.6 27.4
12:05 1027 30.33 857 25.31 18.7 65.7 24 -1.9 28.6
12:10 1027 30.33 857 25.31 18.4 65.1 24 -2.3 27.8
12:15 1027 30.33 857 25.31 18.8 65.8 22 -3.5 25.7
12:20 1027 30.33 857 25.31 19.2 66.5 24 -1.9 28.5
12:25 1027 30.33 856 25.28 19.4 66.8 23 -2.3 27.9
12:30 1027 30.33 856 25.28 18.2 64.8 24 -2.4 27.6
12:35 1027 30.33 856 25.28 18.1 64.7 25 -2.3 27.9
12:40 1027 30.33 856 25.28 18.9 66.1 25 -1.6 29.1
12:45 1027 30.33 856 25.28 19.2 66.5 24 -1.5 29.3
12:50 1027 30.33 856 25.28 20.1 68.2 23 -1.4 29.5
12:55 1027 30.33 856 25.28 19.9 67.8 24 -1.1 30
13:00 1027 30.33 856 25.28 20 67.9 22 -2 28.4
13:05 1027 30.33 856 25.28 19.6 67.3 24 -1.2 29.9
13:10 1027 30.33 856 25.28 19.4 67 24 -1.5 29.4
13:15 1027 30.33 856 25.28 20.1 68.2 21 -2.7 27.2
13:20 1027 30.33 856 25.28 20.6 69.1 21 -2.4 27.7
13:25 1027 30.33 856 25.28 20.4 68.6 22 -1.7 28.9
13:30 1027 30.33 856 25.28 20.8 69.5 23 -0.9 30.3
13:35 1027 30.33 856 25.28 20.3 68.5 22 -2.3 27.9
13:40 1027 30.33 856 25.28 21.2 70.2 21 -1.7 28.9
13:45 1027 30.33 856 25.28 21.4 70.5 22 -1.1 30.1
13:50 1027 30.33 856 25.28 21.3 70.4 21 -1.4 29.4
13:55 1027 30.33 856 25.28 21.1 69.9 22 -1.4 29.5
14:00 1027 30.33 856 25.28 21.3 70.3 21 -1.5 29.4
14:05 1026 30.3 856 25.28 21.9 71.4 20 -2.1 28.3
14:10 1026 30.3 856 25.28 21.7 71 22 -0.8 30.5
14:15 1026 30.3 856 25.28 21.2 70.2 20 -2.2 28.1
14:20 1026 30.3 856 25.28 21.8 71.2 20 -1.6 29
14:25 1026 30.3 855 25.25 22.1 71.7 18 -2.8 26.9
14:30 1026 30.3 855 25.25 22.5 72.5 18 -3 26.6
14:35 1026 30.3 855 25.25 21.6 70.9 20 -2.5 27.6
14:40 1026 30.3 855 25.25 22.1 71.7 19 -2.2 28.1
14:45 1026 30.3 855 25.25 22.9 73.2 18 -2.4 27.7
14:50 1026 30.3 855 25.25 23.2 73.7 18 -2.6 27.3
14:55 1026 30.3 855 25.25 23.2 73.7 18 -2 28.4
15:00 1026 30.3 855 25.25 22.5 72.4 18 -3 26.6
15:05 1026 30.3 855 25.25 23.4 74.2 15 -4.2 24.4
15:10 1026 30.3 855 25.25 23 73.4 15 -4.9 23.2
15:15 1026 30.3 855 25.25 23.5 74.3 15 -4.2 24.4
15:20 1026 30.3 855 25.25 23.2 73.8 16 -3.5 25.8
15:25 1026 30.3 855 25.25 22.8 73.1 17 -3.3 26
15:30 1026 30.3 855 25.25 23.2 73.7 16 -4.2 24.5
15:35 1026 30.3 855 25.25 23 73.3 16 -4.1 24.7
15:40 1025 30.27 855 25.25 23.4 74.1 15 -4.2 24.4
15:45 1025 30.27 855 25.25 23.9 75 15 -4 24.8
15:50 1025 30.27 855 25.25 24.7 76.4 15 -3.8 25.2
15:55 1025 30.27 854 25.22 24.9 76.9 14 -3.9 25
16:00 1025 30.27 854 25.22 24.8 76.6 14 -4.4 24.1
16:05 1025 30.27 854 25.22 24.7 76.4 14 -4.6 23.8
16:10 1025 30.27 854 25.22 24.7 76.4 15 -3.9 25
16:15 1025 30.27 854 25.22 24.8 76.7 15 -3.7 25.4
16:20 1025 30.27 854 25.22 25.3 77.5 14 -3.9 25.1
16:25 1025 30.27 854 25.22 25 77 14 -4.3 24.3
16:30 1025 30.27 854 25.22 25.3 77.6 13 -4.4 24.1
16:35 1025 30.27 854 25.22 25.5 77.8 14 -3.4 25.9
16:40 1025 30.27 854 25.22 25.4 77.7 13 -4.6 23.7
16:45 1025 30.27 854 25.22 24.7 76.5 15 -3.7 25.3
16:50 1025 30.27 854 25.22 25.2 77.3 14 -4.1 24.5
16:55 1025 30.27 854 25.22 25.2 77.3 14 -3.8 25.2
17:00 1025 30.27 854 25.22 25.2 77.3 14 -3.8 25.1
17:05 1025 30.27 854 25.22 25 77 14 -3.7 25.3
17:10 1025 30.27 854 25.22 25 77 14 -4.2 24.4
17:15 1025 30.27 854 25.22 25 77.1 14 -3.7 25.3
17:20 1025 30.27 854 25.22 25.1 77.2 13 -4.7 23.6
17:25 1025 30.27 854 25.22 24.7 76.5 14 -4.6 23.7
17:30 1025 30.27 854 25.22 24.1 75.4 14 -4.6 23.8
17:35 1025 30.27 854 25.22 24.4 75.9 14 -4.5 23.8
17:40 1025 30.27 854 25.22 24.3 75.7 14 -4.6 23.6
17:45 1025 30.27 854 25.22 24.4 75.8 15 -3.8 25.2
17:50 1025 30.27 854 25.22 24.3 75.8 15 -3.7 25.3
17:55 1025 30.27 854 25.22 24.4 75.8 15 -3.6 25.5
18:00 1025 30.27 854 25.22 24.3 75.7 17 -2.5 27.5
18:05 1025 30.27 854 25.22 24.1 75.4 15 -3.6 25.5
18:10 1025 30.27 854 25.22 24 75.2 15 -3.6 25.4
18:15 1025 30.27 854 25.22 23.9 75 15 -3.8 25.2
18:20 1025 30.27 854 25.22 24 75.1 15 -4.1 24.7
18:25 1025 30.27 854 25.22 23.9 75 16 -3.2 26.2
18:30 1025 30.27 854 25.22 23.7 74.7 15 -4.1 24.6
18:35 1025 30.27 854 25.22 23.4 74.1 16 -3.6 25.6
18:40 1025 30.27 854 25.22 22.6 72.6 19 -2 28.4
18:45 1025 30.27 854 25.22 22.2 71.9 21 -1 30.1
18:50 1025 30.27 854 25.22 22 71.6 21 -1.2 29.9
18:55 1025 30.27 854 25.22 21.7 71 21 -1.3 29.7
19:00 1025 30.27 854 25.22 21.3 70.4 25 0.5 32.9
19:05 1025 30.27 854 25.22 20.5 68.9 31 3 37.4
19:10 1025 30.27 854 25.22 19.8 67.7 28 1.2 34.1
19:15 1025 30.27 854 25.22 19.1 66.3 33 2.4 36.4
19:20 1025 30.27 854 25.22 17.8 64 32 0.9 33.6
19:25 1025 30.27 854 25.22 17.1 62.8 32 0.6 33
19:30 1025 30.27 854 25.22 16.6 61.9 35 1.3 34.4
19:35 1025 30.27 854 25.22 16.2 61.2 37 1.6 34.8
19:40 1025 30.27 854 25.22 16.2 61.1 34 0.3 32.5
19:45 1025 30.27 854 25.22 16 60.8 35 0.5 32.9
19:50 1025 30.27 854 25.22 15.7 60.2 35 0.4 32.7
19:55 1025 30.27 854 25.22 14.7 58.4 41 1.6 34.9
20:00 1025 30.27 854 25.22 14 57.3 35 -1.2 29.9
20:05 1025 30.27 854 25.22 14.8 58.7 32 -1.5 29.4
20:10 1025 30.27 854 25.22 15.4 59.8 31 -1.6 29.1
20:15 1025 30.27 854 25.22 15.7 60.2 29 -2.4 27.6
20:20 1025 30.27 854 25.22 15.8 60.4 28 -2.7 27.1
20:25 1025 30.27 854 25.22 15.8 60.4 28 -2.4 27.6
20:30 1025 30.27 854 25.22 15.4 59.7 31 -1.7 29
20:35 1025 30.27 854 25.22 15 59.1 30 -2.3 27.8
20:40 1025 30.27 854 25.22 15.3 59.6 29 -2.6 27.4
20:45 1025 30.27 855 25.25 15.1 59.1 31 -1.8 28.8
20:50 1025 30.27 855 25.25 14.7 58.4 30 -2.6 27.3
20:55 1025 30.27 855 25.25 14.8 58.6 30 -2.7 27.1
21:00 1025 30.27 855 25.25 14.6 58.2 30 -2.9 26.8
21:05 1025 30.27 854 25.22 14.5 58 30 -2.6 27.2
21:10 1025 30.27 854 25.22 14.1 57.3 32 -2.3 27.9
21:15 1025 30.27 854 25.22 13.7 56.6 33 -2.2 28
21:20 1025 30.27 855 25.25 13.6 56.4 33 -2.4 27.7
21:25 1025 30.27 855 25.25 13.8 56.8 32 -2.4 27.6
21:30 1025 30.27 855 25.25 13.9 57 33 -2.2 28.1
21:35 1025 30.27 855 25.25 13.9 57 33 -2.1 28.2
21:40 1025 30.27 855 25.25 14.2 57.5 32 -2.3 27.9
21:45 1025 30.27 855 25.25 14.7 58.4 31 -2.1 28.3
21:50 1025 30.27 855 25.25 14.8 58.7 31 -2.1 28.3
21:55 1025 30.27 855 25.25 14.8 58.6 31 -2.2 28.1
22:00 1026 30.3 855 25.25 14.6 58.3 31 -2.4 27.6
22:05 1026 30.3 855 25.25 14.4 57.9 31 -2.4 27.8
22:10 1026 30.3 855 25.25 14 57.2 31 -2.6 27.3
22:15 1026 30.3 855 25.25 14.1 57.3 31 -2.5 27.4
22:20 1026 30.3 855 25.25 14.2 57.6 31 -2.7 27.1
22:25 1026 30.3 855 25.25 14.1 57.3 32 -2.5 27.5
22:30 1026 30.3 855 25.25 13.9 57.1 31 -3 26.6
22:35 1026 30.3 855 25.25 14.2 57.6 29 -3.3 26.1
22:40 1026 30.3 855 25.25 14.7 58.4 29 -3 26.6
22:45 1026 30.3 855 25.25 14.6 58.4 30 -2.8 27
22:50 1026 30.3 855 25.25 14.6 58.3 30 -2.9 26.9
22:55 1026 30.3 855 25.25 14.8 58.7 30 -2.3 27.9
23:00 1026 30.3 855 25.25 14.8 58.6 31 -2.2 28
23:05 1026 30.3 855 25.25 14.5 58.2 31 -2.2 28
23:10 1026 30.3 855 25.25 14.1 57.3 32 -2.3 27.8
23:15 1026 30.3 855 25.25 14.1 57.3 33 -2.1 28.3
23:20 1026 30.3 855 25.25 14 57.3 33 -1.9 28.6
23:25 1026 30.3 855 25.25 14 57.1 33 -1.9 28.6
23:30 1026 30.3 855 25.25 13.7 56.6 34 -1.8 28.8
23:35 1026 30.3 855 25.25 13.5 56.2 34 -1.9 28.5
23:40 1026 30.3 855 25.25 13.2 55.7 35 -1.9 28.6
23:45 1026 30.3 855 25.25 12.8 55 36 -2 28.4
23:50 1026 30.3 855 25.25 12.8 55 34 -2.7 27.1
23:55 1026 30.3 855 25.25 12.9 55.2 34 -2.7 27.1
24:00 1026 30.3 855 25.25 12.6 54.8 34 -2.8 27